createdAt,value
2022-09-27T00:01:02.560Z,4.22
2022-09-27T00:03:30.395Z,4.63
2022-09-27T00:06:10.825Z,6.45
2022-09-27T00:08:37.834Z,5.00
2022-09-27T00:11:20.186Z,4.75
2022-09-27T00:13:46.911Z,5.03
2022-09-27T00:16:13.714Z,5.43
2022-09-27T00:18:40.487Z,5.63
2022-09-27T00:21:09.943Z,6.43
2022-09-27T00:23:37.355Z,4.85
2022-09-27T00:26:05.029Z,6.80
2022-09-27T00:28:32.268Z,5.70
2022-09-27T00:30:59.225Z,6.25
2022-09-27T00:33:27.255Z,6.18
2022-09-27T00:35:54.174Z,7.13
2022-09-27T00:38:21.079Z,8.38
2022-09-27T00:40:48.578Z,10.13
2022-09-27T00:43:21.244Z,4.90
2022-09-27T00:48:39.924Z,9.37
2022-09-27T00:53:57.484Z,8.35
2022-09-27T00:56:29.124Z,6.32
2022-09-27T00:59:06.611Z,5.85
2022-09-27T01:04:26.575Z,5.70
2022-09-27T01:09:40.781Z,6.00
2022-09-27T01:12:30.025Z,7.20
2022-09-27T01:15:16.403Z,6.43
2022-09-27T01:17:58.238Z,7.75
2022-09-27T01:20:43.051Z,6.70
2022-09-27T01:30:13.724Z,7.97
2022-09-27T01:33:03.671Z,5.93
2022-09-27T01:35:49.164Z,7.07
2022-09-27T01:38:45.478Z,6.65
2022-09-27T01:41:33.377Z,7.25
2022-09-27T01:44:15.638Z,7.43
2022-09-27T01:46:47.932Z,7.43
2022-09-27T01:49:19.967Z,8.80
2022-09-27T01:51:59.373Z,7.97
2022-09-27T01:54:33.880Z,7.28
2022-09-27T01:57:02.314Z,7.90
2022-09-27T01:59:38.602Z,8.60
2022-09-27T02:02:09.417Z,8.05
2022-09-27T02:04:39.084Z,13.80
2022-09-27T02:07:12.583Z,8.52
2022-09-27T02:09:46.286Z,12.07
2022-09-27T02:12:16.714Z,8.35
2022-09-27T02:14:55.810Z,8.18
2022-09-27T02:17:51.578Z,6.63
2022-09-27T02:26:38.028Z,9.02
2022-09-27T02:29:14.764Z,8.98
2022-09-27T02:31:41.669Z,6.75
2022-09-27T02:37:03.829Z,8.57
2022-09-27T02:42:17.573Z,12.30
2022-09-27T02:47:42.756Z,8.38
2022-09-27T02:50:31.603Z,7.57
2022-09-27T02:53:07.554Z,8.68
2022-09-27T02:55:34.252Z,9.00
2022-09-27T03:01:19.071Z,9.88
2022-09-27T03:04:20.435Z,8.55
2022-09-27T03:06:48.124Z,9.63
2022-09-27T03:09:28.776Z,10.82
2022-09-27T03:11:55.594Z,8.90
2022-09-27T03:14:22.570Z,11.00
2022-09-27T03:16:49.365Z,7.65
2022-09-27T03:19:16.247Z,9.40
2022-09-27T03:21:43.142Z,8.38
2022-09-27T03:24:09.880Z,9.40
2022-09-27T03:26:36.709Z,9.00
2022-09-27T03:29:03.565Z,9.50
2022-09-27T03:31:30.450Z,8.95
2022-09-27T03:33:57.381Z,9.57
2022-09-27T03:36:24.194Z,9.07
2022-09-27T03:38:50.966Z,10.05
2022-09-27T03:41:17.824Z,9.57
2022-09-27T03:43:44.592Z,9.35
2022-09-27T03:46:11.450Z,10.07
2022-09-27T03:48:38.263Z,11.88
2022-09-27T03:51:05.080Z,10.05
2022-09-27T03:53:31.858Z,10.00
2022-09-27T03:55:58.573Z,9.50
2022-09-27T04:01:12.072Z,9.35
2022-09-27T04:06:25.622Z,10.60
2022-09-27T04:11:39.248Z,10.40
2022-09-27T04:14:05.961Z,10.20
2022-09-27T04:16:32.783Z,10.70
2022-09-27T04:18:59.656Z,11.10
2022-09-27T04:21:26.413Z,8.53
2022-09-27T04:23:53.356Z,9.50
2022-09-27T04:26:20.114Z,13.60
2022-09-27T04:28:50.904Z,9.80
2022-09-27T04:31:20.698Z,11.57
2022-09-27T04:33:47.475Z,10.50
2022-09-27T04:39:10.343Z,11.77
2022-09-27T04:44:03.950Z,10.40
2022-09-27T04:46:30.906Z,12.68
2022-09-27T04:51:48.136Z,11.38
2022-09-27T04:57:01.529Z,10.90
2022-09-27T05:01:55.052Z,11.70
2022-09-27T05:04:21.813Z,10.38
2022-09-27T05:06:48.535Z,13.68
2022-09-27T05:09:15.344Z,11.43
2022-09-27T05:11:42.231Z,11.68
2022-09-27T05:14:09.011Z,13.77
2022-09-27T05:19:22.618Z,13.32
2022-09-27T05:21:49.343Z,14.15
2022-09-27T05:24:16.224Z,13.50
2022-09-27T05:26:42.945Z,13.27
2022-09-27T05:29:09.674Z,12.40
2022-09-27T05:31:36.411Z,12.70
2022-09-27T05:34:03.177Z,14.82
2022-09-27T05:36:29.951Z,13.23
2022-09-27T05:38:56.708Z,14.60
2022-09-27T05:41:23.699Z,13.23
2022-09-27T05:43:50.518Z,15.25
2022-09-27T05:46:17.385Z,15.57
2022-09-27T05:48:44.185Z,14.40
2022-09-27T05:51:10.932Z,18.05
2022-09-27T05:53:37.691Z,12.40
2022-09-27T05:56:05.087Z,15.03
2022-09-27T05:58:31.822Z,14.48
2022-09-27T06:00:58.607Z,13.52
2022-09-27T06:03:25.323Z,14.98
2022-09-27T06:05:52.394Z,14.77
2022-09-27T06:11:08.716Z,13.10
2022-09-27T06:16:23.268Z,15.73
2022-09-27T06:21:36.699Z,17.07
2022-09-27T06:26:50.491Z,16.23
2022-09-27T06:32:03.921Z,14.05
2022-09-27T06:34:30.709Z,13.98
2022-09-27T06:36:57.468Z,14.25
2022-09-27T06:39:24.234Z,12.60
2022-09-27T06:41:54.283Z,13.60
2022-09-27T06:44:21.008Z,12.60
2022-09-27T06:46:47.723Z,12.90
2022-09-27T06:49:14.548Z,13.43
2022-09-27T06:51:41.299Z,12.53
2022-09-27T06:54:08.134Z,10.48
2022-09-27T06:56:34.860Z,11.57
2022-09-27T06:59:01.585Z,10.57
2022-09-27T07:01:29.693Z,13.75
2022-09-27T07:03:56.585Z,9.90
2022-09-27T07:06:23.316Z,12.43
2022-09-27T07:08:51.575Z,10.40
2022-09-27T07:11:18.445Z,10.07
2022-09-27T07:13:45.165Z,8.20
2022-09-27T07:16:13.682Z,7.68
2022-09-27T07:18:41.816Z,10.25
2022-09-27T07:23:55.763Z,7.97
2022-09-27T07:29:09.176Z,7.10
2022-09-27T07:34:23.800Z,8.35
2022-09-27T07:36:50.546Z,10.67
2022-09-27T07:39:17.370Z,6.53
2022-09-27T07:41:44.263Z,8.57
2022-09-27T07:44:10.977Z,7.30
2022-09-27T07:46:37.691Z,7.45
2022-09-27T07:49:04.470Z,8.38
2022-09-27T07:51:31.418Z,11.27
2022-09-27T07:53:58.172Z,8.00
2022-09-27T07:56:24.884Z,7.43
2022-09-27T07:58:51.615Z,9.00
2022-09-27T08:01:18.488Z,9.50
2022-09-27T08:03:45.250Z,8.10
2022-09-27T08:06:12.035Z,12.15
2022-09-27T08:08:39.201Z,8.02
2022-09-27T08:11:17.686Z,8.50
2022-09-27T08:13:45.714Z,10.70
2022-09-27T08:16:12.563Z,9.25
2022-09-27T08:18:39.320Z,10.00
2022-09-27T08:21:06.163Z,9.10
2022-09-27T08:23:32.904Z,11.65
2022-09-27T08:25:59.645Z,9.70
2022-09-27T08:28:27.224Z,10.85
2022-09-27T08:30:53.983Z,11.35
2022-09-27T08:33:20.760Z,11.15
2022-09-27T08:35:47.692Z,11.90
2022-09-27T08:38:14.410Z,10.20
2022-09-27T08:40:52.757Z,9.65
2022-09-27T08:43:39.379Z,8.45
2022-09-27T08:47:02.931Z,8.60
2022-09-27T08:49:36.299Z,8.57
2022-09-27T08:52:07.511Z,8.75
2022-09-27T08:54:36.315Z,8.43
2022-09-27T08:57:11.174Z,6.72
2022-09-27T08:59:42.408Z,8.02
2022-09-27T09:05:12.359Z,7.20
2022-09-27T09:07:52.170Z,6.90
2022-09-27T09:10:43.710Z,6.80
2022-09-27T09:13:24.674Z,6.25
2022-09-27T09:19:33.545Z,5.70
2022-09-27T09:22:18.247Z,6.20
2022-09-27T09:25:09.360Z,5.00
2022-09-27T09:27:45.106Z,5.80
2022-09-27T09:30:23.120Z,5.70
2022-09-27T09:33:16.520Z,6.30
2022-09-27T09:35:52.280Z,5.20
2022-09-27T09:38:33.390Z,4.88
2022-09-27T09:41:11.819Z,5.85
2022-09-27T09:43:47.364Z,6.63
2022-09-27T09:46:44.883Z,5.25
2022-09-27T09:49:21.334Z,4.85
2022-09-27T09:51:52.638Z,4.05
2022-09-27T09:57:27.660Z,4.05
2022-09-27T10:00:07.481Z,4.97
2022-09-27T10:02:42.948Z,5.10
2022-09-27T10:05:20.167Z,3.90
2022-09-27T10:07:49.379Z,3.88
2022-09-27T10:13:05.534Z,3.67
2022-09-27T10:18:20.384Z,4.28
2022-09-27T10:20:56.319Z,4.17
2022-09-27T10:23:24.260Z,3.67
2022-09-27T10:26:00.861Z,3.25
2022-09-27T10:28:41.140Z,4.40
2022-09-27T10:31:16.770Z,4.00
2022-09-27T10:33:55.160Z,4.20
2022-09-27T10:36:28.159Z,6.68
2022-09-27T10:41:44.561Z,5.00
2022-09-27T10:44:17.585Z,3.90
2022-09-27T10:46:46.207Z,3.70
2022-09-27T10:49:18.977Z,4.05
2022-09-27T10:51:01.080Z,0
2022-09-27T10:51:49.331Z,4.88
2022-09-27T10:54:40.062Z,3.53
2022-09-27T10:57:18.213Z,5.20
2022-09-27T10:59:52.179Z,3.22
2022-09-27T11:02:30.720Z,3.30
2022-09-27T11:05:14.561Z,5.18
2022-09-27T11:10:43.275Z,4.20
2022-09-27T11:16:36.037Z,3.60
2022-09-27T11:28:59.305Z,6.15
2022-09-27T11:31:34.359Z,2.80
2022-09-27T11:34:10.000Z,6.30
2022-09-27T11:37:06.385Z,4.50
2022-09-27T11:39:03.603Z,0
2022-09-27T11:39:50.944Z,7.38
2022-09-27T11:42:56.546Z,3.72
2022-09-27T11:46:57.524Z,0
2022-09-27T11:48:53.628Z,3.10
2022-09-27T11:51:44.192Z,3.60
2022-09-27T11:54:39.602Z,3.30
2022-09-27T11:57:21.042Z,4.68
2022-09-27T12:00:03.160Z,2.70
2022-09-27T12:02:47.725Z,2.92
2022-09-27T12:05:20.089Z,3.67
2022-09-27T12:08:01.256Z,4.20
2022-09-27T12:13:17.243Z,3.45
2022-09-27T12:15:47.670Z,3.83
2022-09-27T12:18:24.445Z,6.00
2022-09-27T12:18:53.755Z,0
2022-09-27T12:20:52.244Z,4.13
2022-09-27T12:23:26.941Z,3.03
2022-09-27T12:26:00.421Z,5.00
2022-09-27T12:28:30.276Z,0
2022-09-27T12:31:55.026Z,3.67
2022-09-27T12:34:35.997Z,3.13
2022-09-27T12:37:35.376Z,3.60
2022-09-27T12:46:21.470Z,4.38
2022-09-27T12:49:07.021Z,6.32
2022-09-27T12:54:48.093Z,4.00
2022-09-27T12:57:30.311Z,3.67
2022-09-27T13:03:16.209Z,5.63
2022-09-27T13:06:17.451Z,3.20
2022-09-27T13:08:54.192Z,3.50
2022-09-27T13:11:31.109Z,3.40
2022-09-27T13:13:59.880Z,3.05
2022-09-27T13:16:27.553Z,3.60
2022-09-27T13:18:56.268Z,2.90
2022-09-27T13:21:50.998Z,2.60
2022-09-27T13:27:28.256Z,3.70
2022-09-27T13:30:13.126Z,2.60
2022-09-27T13:32:40.451Z,6.60
2022-09-27T13:35:27.478Z,3.10
2022-09-27T13:37:55.484Z,7.90
2022-09-27T13:43:46.631Z,5.10
2022-09-27T13:46:19.670Z,7.70
2022-09-27T13:48:55.530Z,4.90
2022-09-27T13:51:39.955Z,3.20
2022-09-27T13:54:45.360Z,4.03
2022-09-27T13:57:49.531Z,8.73
2022-09-27T14:00:41.309Z,4.53
2022-09-27T14:03:50.283Z,6.80
2022-09-27T14:09:29.267Z,4.30
2022-09-27T14:12:02.186Z,3.00
2022-09-27T14:14:31.797Z,4.20
2022-09-27T14:17:00.407Z,3.80
2022-09-27T14:19:28.313Z,3.60
2022-09-27T14:21:55.909Z,3.33
2022-09-27T14:24:28.656Z,3.33
2022-09-27T14:27:13.710Z,3.40
2022-09-27T14:29:44.541Z,3.38
2022-09-27T14:32:32.622Z,3.00
2022-09-27T14:38:20.780Z,3.33
2022-09-27T14:38:41.243Z,0
2022-09-27T14:41:01.899Z,4.80
2022-09-27T14:43:30.343Z,7.80
2022-09-27T14:46:02.300Z,4.20
2022-09-27T14:48:31.602Z,11.45
2022-09-27T14:51:19.947Z,4.57
2022-09-27T14:53:48.471Z,3.50
2022-09-27T14:56:21.693Z,4.47
2022-09-27T14:58:53.134Z,3.40
2022-09-27T15:01:20.634Z,4.00
2022-09-27T15:03:48.499Z,3.50
2022-09-27T15:09:06.905Z,3.60
2022-09-27T15:11:34.013Z,5.47
2022-09-27T15:14:02.589Z,4.70
2022-09-27T15:16:31.544Z,3.10
2022-09-27T15:19:06.403Z,5.20
2022-09-27T15:21:37.787Z,4.30
2022-09-27T15:24:05.367Z,9.45
2022-09-27T15:26:43.023Z,5.20
2022-09-27T15:29:24.535Z,3.22
2022-09-27T15:32:03.706Z,3.47
2022-09-27T15:34:31.445Z,5.72
2022-09-27T15:36:59.225Z,4.10
2022-09-27T15:39:38.911Z,2.90
2022-09-27T15:42:13.224Z,2.60
2022-09-27T15:44:42.943Z,2.70
2022-09-27T15:47:31.460Z,3.38
2022-09-27T15:49:59.099Z,3.45
2022-09-27T15:52:50.112Z,3.10
2022-09-27T15:55:26.061Z,4.40
2022-09-27T15:57:59.933Z,5.10
2022-09-27T16:00:27.157Z,5.25
2022-09-27T16:02:53.981Z,5.00
2022-09-27T16:05:21.036Z,5.68
2022-09-27T16:07:47.763Z,5.47
2022-09-27T16:10:15.524Z,6.70
2022-09-27T16:12:42.243Z,4.40
2022-09-27T16:15:09.326Z,6.97
2022-09-27T16:17:36.026Z,4.38
2022-09-27T16:20:02.811Z,5.82
2022-09-27T16:22:29.568Z,5.30
2022-09-27T16:24:56.373Z,5.90
2022-09-27T16:27:24.545Z,7.82
2022-09-27T16:29:51.262Z,6.00
2022-09-27T16:32:17.966Z,5.60
2022-09-27T16:34:44.806Z,4.80
2022-09-27T16:39:58.217Z,6.68
2022-09-27T16:42:24.932Z,5.50
2022-09-27T16:44:51.696Z,6.05
2022-09-27T16:47:18.418Z,6.50
2022-09-27T16:49:45.223Z,6.78
2022-09-27T16:52:11.995Z,7.93
2022-09-27T16:54:38.697Z,9.25
2022-09-27T16:57:05.465Z,9.27
2022-09-27T16:59:32.157Z,13.13
2022-09-27T17:01:58.922Z,9.67
2022-09-27T17:04:29.152Z,6.88
2022-09-27T17:06:56.430Z,9.00
2022-09-27T17:09:23.471Z,7.32
2022-09-27T17:11:50.675Z,8.80
2022-09-27T17:14:18.059Z,9.23
2022-09-27T17:16:46.469Z,10.32
2022-09-27T17:19:14.295Z,9.48
2022-09-27T17:21:41.586Z,8.50
2022-09-27T17:24:08.322Z,9.80
2022-09-27T17:26:35.058Z,12.25
2022-09-27T17:29:02.206Z,11.05
2022-09-27T17:31:29.449Z,10.35
2022-09-27T17:33:57.907Z,10.45
2022-09-27T17:36:27.978Z,10.02
2022-09-27T17:38:54.769Z,9.73
2022-09-27T17:41:24.421Z,15.40
2022-09-27T17:43:56.801Z,10.60
2022-09-27T17:46:34.989Z,11.10
2022-09-27T17:49:02.629Z,17.05
2022-09-27T17:51:29.649Z,10.88
2022-09-27T17:53:56.380Z,10.82
2022-09-27T17:56:23.553Z,10.73
2022-09-27T17:58:52.957Z,16.23
2022-09-27T18:01:21.606Z,17.75
2022-09-27T18:03:48.509Z,14.50
2022-09-27T18:06:15.916Z,11.50
2022-09-27T18:08:43.207Z,10.98
2022-09-27T18:11:15.867Z,14.30
2022-09-27T18:13:44.301Z,11.00
2022-09-27T18:16:13.214Z,12.63
2022-09-27T18:18:42.086Z,13.17
2022-09-27T18:21:11.692Z,12.32
2022-09-27T18:26:27.168Z,15.10
2022-09-27T18:31:48.187Z,10.43
2022-09-27T18:37:03.359Z,11.52
2022-09-27T18:40:59.667Z,0
2022-09-27T18:42:16.682Z,14.07
2022-09-27T18:44:43.397Z,15.50
2022-09-27T18:46:40.104Z,0
2022-09-27T18:47:10.178Z,16.48
2022-09-27T18:49:36.979Z,10.70
2022-09-27T18:52:03.721Z,12.63
2022-09-27T18:54:30.547Z,11.67
2022-09-27T18:56:58.973Z,11.60
2022-09-27T18:59:25.766Z,11.57
2022-09-27T19:01:52.702Z,13.38
2022-09-27T19:04:23.611Z,9.60
2022-09-27T19:06:52.104Z,12.00
2022-09-27T19:09:18.943Z,10.88
2022-09-27T19:11:46.016Z,9.88
2022-09-27T19:14:20.631Z,7.57
2022-09-27T19:16:48.090Z,10.13
2022-09-27T19:19:19.334Z,8.60
2022-09-27T19:21:46.348Z,10.43
2022-09-27T19:24:13.698Z,7.33
2022-09-27T19:26:40.425Z,7.90
2022-09-27T19:29:07.149Z,9.30
2022-09-27T19:31:34.009Z,9.27
2022-09-27T19:34:00.947Z,9.57
2022-09-27T19:36:28.332Z,8.32
2022-09-27T19:38:55.084Z,8.10
2022-09-27T19:41:21.797Z,7.97
2022-09-27T19:43:53.027Z,8.25
2022-09-27T19:46:21.019Z,7.68
2022-09-27T19:51:35.651Z,18.88
2022-09-27T19:54:02.360Z,10.80
2022-09-27T19:56:29.107Z,7.13
2022-09-27T19:58:55.832Z,7.35
2022-09-27T20:01:25.807Z,8.10
2022-09-27T20:03:54.294Z,7.28
2022-09-27T20:06:22.011Z,8.80
2022-09-27T20:08:49.578Z,10.63
2022-09-27T20:11:21.177Z,9.10
2022-09-27T20:13:48.552Z,10.13
2022-09-27T20:19:05.038Z,12.95
2022-09-27T20:24:19.422Z,11.40
2022-09-27T20:26:46.144Z,12.30
2022-09-27T20:29:12.867Z,10.10
2022-09-27T20:31:55.630Z,11.63
2022-09-27T20:32:30.957Z,0
2022-09-27T20:34:27.294Z,10.82
2022-09-27T20:36:54.063Z,12.20
2022-09-27T20:39:20.759Z,10.57
2022-09-27T20:41:47.462Z,11.35
2022-09-27T20:44:18.957Z,13.23
2022-09-27T20:46:46.733Z,12.60
2022-09-27T20:49:16.495Z,15.77
2022-09-27T20:51:45.330Z,11.40
2022-09-27T20:54:12.830Z,12.82
2022-09-27T20:56:42.388Z,11.70
2022-09-27T20:58:00.137Z,0
2022-09-27T20:59:20.649Z,12.50
2022-09-27T21:01:49.346Z,11.20
2022-09-27T21:04:18.489Z,12.40
2022-09-27T21:06:45.443Z,11.80
2022-09-27T21:09:13.673Z,12.57
2022-09-27T21:10:54.719Z,0
2022-09-27T21:11:40.431Z,12.75
2022-09-27T21:16:53.756Z,15.27
2022-09-27T21:19:20.480Z,16.38
2022-09-27T21:21:47.221Z,16.95
2022-09-27T21:24:14.011Z,14.18
2022-09-27T21:26:40.710Z,16.70
2022-09-27T21:29:09.465Z,12.73
2022-09-27T21:31:36.409Z,13.85
2022-09-27T21:36:51.326Z,16.20
2022-09-27T21:39:18.112Z,15.13
2022-09-27T21:41:44.851Z,16.75
2022-09-27T21:44:11.631Z,13.40
2022-09-27T21:49:28.600Z,17.08
2022-09-27T21:51:55.317Z,13.98
2022-09-27T21:54:22.023Z,17.55
2022-09-27T21:56:48.766Z,15.68
2022-09-27T21:59:15.821Z,12.32
2022-09-27T22:01:44.366Z,12.10
2022-09-27T22:04:11.328Z,12.35
2022-09-27T22:06:39.459Z,12.10
2022-09-27T22:09:08.556Z,12.63
2022-09-27T22:11:39.355Z,14.02
2022-09-27T22:16:52.893Z,12.93
2022-09-27T22:19:19.686Z,15.27
2022-09-27T22:24:27.118Z,16.15
2022-09-27T22:26:53.801Z,20.02
2022-09-27T22:32:12.959Z,16.15
2022-09-27T22:34:39.664Z,17.67
2022-09-27T22:37:06.378Z,16.83
2022-09-27T22:39:33.106Z,15.97
2022-09-27T22:41:59.817Z,16.60
2022-09-27T22:44:26.517Z,14.60
2022-09-27T22:46:53.290Z,14.85
2022-09-27T22:49:20.027Z,16.73
2022-09-27T22:51:46.722Z,17.38
2022-09-27T22:54:13.440Z,16.20
2022-09-27T22:56:40.138Z,17.50
2022-09-27T22:59:06.878Z,16.10
2022-09-27T23:01:33.664Z,14.80
2022-09-27T23:04:00.599Z,15.20
2022-09-27T23:06:27.384Z,16.03
2022-09-27T23:08:54.161Z,17.55
2022-09-27T23:11:22.761Z,14.93
2022-09-27T23:13:51.004Z,18.33
2022-09-27T23:16:20.466Z,17.73
2022-09-27T23:18:47.430Z,18.17
2022-09-27T23:21:15.218Z,16.55
2022-09-27T23:23:43.871Z,18.10
2022-09-27T23:29:01.476Z,17.27
2022-09-27T23:34:16.961Z,22.83
2022-09-27T23:36:43.698Z,21.02
2022-09-27T23:39:10.476Z,20.08
2022-09-27T23:41:37.188Z,18.20
2022-09-27T23:44:03.912Z,17.00
2022-09-27T23:46:30.680Z,19.65
2022-09-27T23:48:57.458Z,20.58
2022-09-27T23:51:24.182Z,21.40
2022-09-27T23:53:50.978Z,21.77
2022-09-27T23:56:18.033Z,23.75
2022-09-27T23:58:45.940Z,25.07
